sensor_id;sensor_type;location;lat;lon;timestamp;pressure;altitude;pressure_sealevel;temperature;humidity
28626;BME280;18905;42.668;23.364;2023-08-07T00:02:23;94542.97;;;24.40;97.23
28626;BME280;18905;42.668;23.364;2023-08-07T00:04:48;94535.69;;;24.00;98.22
28626;BME280;18905;42.668;23.364;2023-08-07T00:07:13;94537.88;;;23.82;100.00
28626;BME280;18905;42.668;23.364;2023-08-07T00:09:39;94531.25;;;23.09;100.00
28626;BME280;18905;42.668;23.364;2023-08-07T00:12:04;94537.72;;;22.96;100.00
28626;BME280;18905;42.668;23.364;2023-08-07T00:14:30;94547.94;;;23.36;100.00
28626;BME280;18905;42.668;23.364;2023-08-07T00:16:55;94547.59;;;23.64;100.00
28626;BME280;18905;42.668;23.364;2023-08-07T00:19:21;94536.06;;;23.39;100.00
28626;BME280;18905;42.668;23.364;2023-08-07T00:21:46;94507.19;;;23.54;100.00
28626;BME280;18905;42.668;23.364;2023-08-07T00:24:11;94542.81;;;23.98;97.95
28626;BME280;18905;42.668;23.364;2023-08-07T00:26:37;94539.91;;;23.78;97.52
28626;BME280;18905;42.668;23.364;2023-08-07T00:29:02;94530.94;;;23.74;98.41
28626;BME280;18905;42.668;23.364;2023-08-07T00:31:27;94548.47;;;23.57;100.00
28626;BME280;18905;42.668;23.364;2023-08-07T00:33:57;94524.91;;;23.16;97.90
28626;BME280;18905;42.668;23.364;2023-08-07T00:36:22;94541.66;;;22.51;100.00
28626;BME280;18905;42.668;23.364;2023-08-07T00:38:47;94545.53;;;23.01;100.00
28626;BME280;18905;42.668;23.364;2023-08-07T00:41:13;94542.25;;;22.76;100.00
28626;BME280;18905;42.668;23.364;2023-08-07T00:43:38;94554.44;;;23.12;100.00
28626;BME280;18905;42.668;23.364;2023-08-07T00:46:04;94546.53;;;23.17;100.00
28626;BME280;18905;42.668;23.364;2023-08-07T00:48:29;94557.41;;;22.47;100.00
28626;BME280;18905;42.668;23.364;2023-08-07T00:50:55;94520.78;;;22.06;100.00
28626;BME280;18905;42.668;23.364;2023-08-07T00:53:21;94564.47;;;22.44;100.00
28626;BME280;18905;42.668;23.364;2023-08-07T00:55:47;94560.25;;;22.84;100.00
28626;BME280;18905;42.668;23.364;2023-08-07T00:58:13;94564.25;;;23.20;100.00
28626;BME280;18905;42.668;23.364;2023-08-07T01:00:39;94577.56;;;23.58;100.00
28626;BME280;18905;42.668;23.364;2023-08-07T01:03:07;94563.06;;;23.54;98.22
28626;BME280;18905;42.668;23.364;2023-08-07T01:05:33;94580.22;;;23.69;97.35
28626;BME280;18905;42.668;23.364;2023-08-07T01:07:59;94582.84;;;23.76;95.26
28626;BME280;18905;42.668;23.364;2023-08-07T01:13:14;94600.72;;;24.01;95.76
28626;BME280;18905;42.668;23.364;2023-08-07T01:15:41;94599.91;;;24.01;95.85
28626;BME280;18905;42.668;23.364;2023-08-07T01:18:07;94602.25;;;24.02;95.63
28626;BME280;18905;42.668;23.364;2023-08-07T01:20:33;94609.00;;;23.98;95.48
28626;BME280;18905;42.668;23.364;2023-08-07T01:22:58;94587.75;;;23.98;94.84
28626;BME280;18905;42.668;23.364;2023-08-07T01:25:23;94610.63;;;24.22;94.89
28626;BME280;18905;42.668;23.364;2023-08-07T01:28:17;94594.94;;;24.19;94.15
28626;BME280;18905;42.668;23.364;2023-08-07T01:30:49;94600.88;;;23.84;95.51
28626;BME280;18905;42.668;23.364;2023-08-07T01:33:26;94601.25;;;23.12;100.00
28626;BME280;18905;42.668;23.364;2023-08-07T01:35:54;94576.78;;;21.47;100.00
28626;BME280;18905;42.668;23.364;2023-08-07T01:38:24;94580.09;;;20.82;100.00
28626;BME280;18905;42.668;23.364;2023-08-07T01:40:51;94596.94;;;20.38;100.00
28626;BME280;18905;42.668;23.364;2023-08-07T01:43:18;94593.41;;;20.55;100.00
28626;BME280;18905;42.668;23.364;2023-08-07T01:45:44;94583.19;;;21.09;100.00
28626;BME280;18905;42.668;23.364;2023-08-07T01:48:10;94565.88;;;21.33;100.00
28626;BME280;18905;42.668;23.364;2023-08-07T01:50:38;94581.09;;;21.51;100.00
28626;BME280;18905;42.668;23.364;2023-08-07T01:53:04;94580.03;;;21.21;100.00
28626;BME280;18905;42.668;23.364;2023-08-07T01:55:29;94570.66;;;21.08;100.00
28626;BME280;18905;42.668;23.364;2023-08-07T01:57:54;94592.94;;;21.41;100.00
28626;BME280;18905;42.668;23.364;2023-08-07T02:00:20;94602.03;;;21.07;100.00
28626;BME280;18905;42.668;23.364;2023-08-07T02:02:46;94603.22;;;20.56;100.00
28626;BME280;18905;42.668;23.364;2023-08-07T02:05:12;94606.69;;;21.24;100.00
28626;BME280;18905;42.668;23.364;2023-08-07T02:07:38;94600.00;;;21.35;100.00
28626;BME280;18905;42.668;23.364;2023-08-07T02:10:03;94589.28;;;21.65;100.00
28626;BME280;18905;42.668;23.364;2023-08-07T02:12:29;94599.66;;;22.16;100.00
28626;BME280;18905;42.668;23.364;2023-08-07T02:14:58;94606.19;;;22.46;100.00
28626;BME280;18905;42.668;23.364;2023-08-07T02:17:24;94595.81;;;22.61;100.00
28626;BME280;18905;42.668;23.364;2023-08-07T02:19:50;94610.22;;;21.35;100.00
28626;BME280;18905;42.668;23.364;2023-08-07T02:22:16;94600.59;;;21.88;100.00
28626;BME280;18905;42.668;23.364;2023-08-07T02:24:41;94624.34;;;21.23;100.00
28626;BME280;18905;42.668;23.364;2023-08-07T02:27:06;94624.66;;;21.49;100.00
28626;BME280;18905;42.668;23.364;2023-08-07T02:29:32;94609.84;;;20.41;100.00
28626;BME280;18905;42.668;23.364;2023-08-07T02:32:00;94625.56;;;21.08;100.00
28626;BME280;18905;42.668;23.364;2023-08-07T02:34:25;94625.53;;;21.15;100.00
28626;BME280;18905;42.668;23.364;2023-08-07T02:36:50;94633.66;;;21.71;100.00
28626;BME280;18905;42.668;23.364;2023-08-07T02:39:16;94611.50;;;22.09;100.00
28626;BME280;18905;42.668;23.364;2023-08-07T02:41:42;94625.44;;;22.46;100.00
28626;BME280;18905;42.668;23.364;2023-08-07T02:44:07;94632.00;;;22.63;100.00
28626;BME280;18905;42.668;23.364;2023-08-07T02:46:32;94628.72;;;22.75;100.00
28626;BME280;18905;42.668;23.364;2023-08-07T02:48:59;94619.44;;;22.58;100.00
28626;BME280;18905;42.668;23.364;2023-08-07T02:51:25;94629.25;;;22.59;100.00
28626;BME280;18905;42.668;23.364;2023-08-07T02:53:50;94629.88;;;22.81;100.00
28626;BME280;18905;42.668;23.364;2023-08-07T02:56:15;94592.81;;;21.62;100.00
28626;BME280;18905;42.668;23.364;2023-08-07T02:58:41;94638.88;;;21.06;100.00
28626;BME280;18905;42.668;23.364;2023-08-07T03:01:07;94620.84;;;20.55;100.00
28626;BME280;18905;42.668;23.364;2023-08-07T03:03:33;94634.56;;;20.66;100.00
28626;BME280;18905;42.668;23.364;2023-08-07T03:05:58;94641.56;;;21.34;100.00
28626;BME280;18905;42.668;23.364;2023-08-07T03:08:24;94654.94;;;20.75;100.00
28626;BME280;18905;42.668;23.364;2023-08-07T03:10:51;94624.00;;;20.71;100.00
28626;BME280;18905;42.668;23.364;2023-08-07T03:13:17;94652.59;;;20.63;100.00
28626;BME280;18905;42.668;23.364;2023-08-07T03:15:42;94654.97;;;21.04;100.00
28626;BME280;18905;42.668;23.364;2023-08-07T03:18:08;94645.88;;;21.42;100.00
28626;BME280;18905;42.668;23.364;2023-08-07T03:20:36;94633.19;;;21.86;100.00
28626;BME280;18905;42.668;23.364;2023-08-07T03:23:02;94652.78;;;21.99;100.00
28626;BME280;18905;42.668;23.364;2023-08-07T03:25:28;94662.31;;;21.59;100.00
28626;BME280;18905;42.668;23.364;2023-08-07T03:27:56;94573.41;;;20.86;100.00
28626;BME280;18905;42.668;23.364;2023-08-07T03:30:22;94672.56;;;21.45;100.00
28626;BME280;18905;42.668;23.364;2023-08-07T03:32:48;94669.78;;;21.55;100.00
28626;BME280;18905;42.668;23.364;2023-08-07T03:35:15;94555.00;;;20.91;100.00
28626;BME280;18905;42.668;23.364;2023-08-07T03:37:41;94645.84;;;21.56;100.00
28626;BME280;18905;42.668;23.364;2023-08-07T03:40:07;94549.88;;;20.78;100.00
28626;BME280;18905;42.668;23.364;2023-08-07T03:42:33;94558.16;;;20.57;100.00
28626;BME280;18905;42.668;23.364;2023-08-07T03:45:00;94695.69;;;20.73;100.00
28626;BME280;18905;42.668;23.364;2023-08-07T03:47:26;94561.91;;;19.58;100.00
28626;BME280;18905;42.668;23.364;2023-08-07T03:49:55;94596.38;;;18.91;100.00
28626;BME280;18905;42.668;23.364;2023-08-07T03:52:22;94703.84;;;18.92;100.00
28626;BME280;18905;42.668;23.364;2023-08-07T03:54:48;94549.78;;;17.83;100.00
28626;BME280;18905;42.668;23.364;2023-08-07T03:57:15;94547.03;;;17.14;100.00
28626;BME280;18905;42.668;23.364;2023-08-07T03:59:42;94622.91;;;18.37;100.00
28626;BME280;18905;42.668;23.364;2023-08-07T04:02:07;94713.25;;;18.98;100.00
28626;BME280;18905;42.668;23.364;2023-08-07T04:04:33;94537.34;;;17.89;100.00
28626;BME280;18905;42.668;23.364;2023-08-07T04:07:00;94584.50;;;17.46;100.00
28626;BME280;18905;42.668;23.364;2023-08-07T04:09:32;94728.22;;;18.27;100.00
28626;BME280;18905;42.668;23.364;2023-08-07T04:12:00;94730.06;;;17.87;100.00
28626;BME280;18905;42.668;23.364;2023-08-07T04:14:27;94604.34;;;17.17;100.00
28626;BME280;18905;42.668;23.364;2023-08-07T04:16:54;94642.69;;;16.98;100.00
28626;BME280;18905;42.668;23.364;2023-08-07T04:19:27;94694.84;;;17.45;100.00
28626;BME280;18905;42.668;23.364;2023-08-07T04:21:58;94605.13;;;16.62;100.00
28626;BME280;18905;42.668;23.364;2023-08-07T04:24:25;94618.78;;;17.18;100.00
28626;BME280;18905;42.668;23.364;2023-08-07T04:26:51;94661.66;;;17.76;100.00
28626;BME280;18905;42.668;23.364;2023-08-07T04:29:17;94749.41;;;18.74;100.00
28626;BME280;18905;42.668;23.364;2023-08-07T04:31:47;94751.84;;;18.82;100.00
28626;BME280;18905;42.668;23.364;2023-08-07T04:34:23;94649.19;;;18.99;100.00
28626;BME280;18905;42.668;23.364;2023-08-07T04:36:54;94746.78;;;20.03;100.00
28626;BME280;18905;42.668;23.364;2023-08-07T04:39:24;94644.91;;;19.76;100.00
28626;BME280;18905;42.668;23.364;2023-08-07T04:41:50;94743.97;;;21.31;100.00
28626;BME280;18905;42.668;23.364;2023-08-07T04:44:16;94746.13;;;20.20;100.00
28626;BME280;18905;42.668;23.364;2023-08-07T04:46:41;94740.84;;;19.87;100.00
28626;BME280;18905;42.668;23.364;2023-08-07T04:49:06;94742.44;;;19.88;100.00
28626;BME280;18905;42.668;23.364;2023-08-07T04:51:32;94743.91;;;19.17;100.00
28626;BME280;18905;42.668;23.364;2023-08-07T04:53:58;94735.97;;;18.58;100.00
28626;BME280;18905;42.668;23.364;2023-08-07T04:56:23;94741.53;;;19.12;100.00
28626;BME280;18905;42.668;23.364;2023-08-07T04:58:48;94720.63;;;18.90;100.00
28626;BME280;18905;42.668;23.364;2023-08-07T05:01:14;94732.13;;;19.64;100.00
28626;BME280;18905;42.668;23.364;2023-08-07T05:03:39;94720.66;;;19.44;100.00
28626;BME280;18905;42.668;23.364;2023-08-07T05:06:05;94738.25;;;20.11;100.00
28626;BME280;18905;42.668;23.364;2023-08-07T05:08:33;94718.91;;;19.80;100.00
28626;BME280;18905;42.668;23.364;2023-08-07T05:10:59;94735.53;;;20.11;100.00
28626;BME280;18905;42.668;23.364;2023-08-07T05:13:24;94731.34;;;20.52;100.00
28626;BME280;18905;42.668;23.364;2023-08-07T05:15:50;94725.09;;;21.64;100.00
28626;BME280;18905;42.668;23.364;2023-08-07T05:18:19;94707.06;;;21.49;100.00
28626;BME280;18905;42.668;23.364;2023-08-07T05:20:44;94696.03;;;21.84;100.00
28626;BME280;18905;42.668;23.364;2023-08-07T05:23:10;94729.81;;;20.69;100.00
28626;BME280;18905;42.668;23.364;2023-08-07T05:25:36;94703.78;;;19.35;100.00
28626;BME280;18905;42.668;23.364;2023-08-07T05:28:02;94637.75;;;19.44;100.00
28626;BME280;18905;42.668;23.364;2023-08-07T05:30:28;94718.47;;;19.13;100.00
28626;BME280;18905;42.668;23.364;2023-08-07T05:32:53;94652.03;;;18.62;100.00
28626;BME280;18905;42.668;23.364;2023-08-07T05:35:20;94702.59;;;19.29;100.00
28626;BME280;18905;42.668;23.364;2023-08-07T05:37:45;94717.53;;;20.14;100.00
28626;BME280;18905;42.668;23.364;2023-08-07T05:40:10;94675.81;;;19.05;100.00
28626;BME280;18905;42.668;23.364;2023-08-07T05:42:39;94654.06;;;19.23;100.00
28626;BME280;18905;42.668;23.364;2023-08-07T05:45:06;94719.22;;;19.64;100.00
28626;BME280;18905;42.668;23.364;2023-08-07T05:47:32;94668.63;;;20.33;100.00
28626;BME280;18905;42.668;23.364;2023-08-07T05:49:57;94701.56;;;20.47;100.00
28626;BME280;18905;42.668;23.364;2023-08-07T05:52:23;94632.13;;;20.08;100.00
28626;BME280;18905;42.668;23.364;2023-08-07T05:54:48;94649.66;;;19.11;100.00
28626;BME280;18905;42.668;23.364;2023-08-07T05:57:13;94645.13;;;18.79;100.00
28626;BME280;18905;42.668;23.364;2023-08-07T05:59:39;94652.59;;;19.39;100.00
28626;BME280;18905;42.668;23.364;2023-08-07T06:02:06;94665.44;;;20.21;100.00
28626;BME280;18905;42.668;23.364;2023-08-07T06:04:31;94729.66;;;20.16;100.00
28626;BME280;18905;42.668;23.364;2023-08-07T06:06:56;94649.66;;;19.79;100.00
28626;BME280;18905;42.668;23.364;2023-08-07T06:09:22;94725.06;;;20.52;100.00
28626;BME280;18905;42.668;23.364;2023-08-07T06:11:48;94681.66;;;19.04;100.00
28626;BME280;18905;42.668;23.364;2023-08-07T06:14:13;94667.94;;;19.58;100.00
28626;BME280;18905;42.668;23.364;2023-08-07T06:16:39;94697.19;;;20.22;100.00
28626;BME280;18905;42.668;23.364;2023-08-07T06:19:04;94642.66;;;19.99;100.00
28626;BME280;18905;42.668;23.364;2023-08-07T06:21:30;94649.38;;;20.16;100.00
28626;BME280;18905;42.668;23.364;2023-08-07T06:23:56;94676.50;;;20.73;100.00
28626;BME280;18905;42.668;23.364;2023-08-07T06:26:22;94693.75;;;21.20;100.00
28626;BME280;18905;42.668;23.364;2023-08-07T06:28:47;94638.84;;;20.35;100.00
28626;BME280;18905;42.668;23.364;2023-08-07T06:31:13;94652.09;;;21.70;100.00
28626;BME280;18905;42.668;23.364;2023-08-07T06:33:38;94703.78;;;22.82;97.16
28626;BME280;18905;42.668;23.364;2023-08-07T06:36:04;94637.06;;;21.96;95.82
28626;BME280;18905;42.668;23.364;2023-08-07T06:38:30;94652.53;;;22.41;98.63
28626;BME280;18905;42.668;23.364;2023-08-07T06:40:56;94639.44;;;21.94;97.94
28626;BME280;18905;42.668;23.364;2023-08-07T06:43:22;94714.56;;;23.61;84.64
28626;BME280;18905;42.668;23.364;2023-08-07T06:45:54;94637.25;;;21.40;88.55
28626;BME280;18905;42.668;23.364;2023-08-07T06:48:20;94721.97;;;22.66;82.85
28626;BME280;18905;42.668;23.364;2023-08-07T06:50:47;94659.78;;;22.10;78.70
28626;BME280;18905;42.668;23.364;2023-08-07T06:53:12;94650.38;;;22.08;83.77
28626;BME280;18905;42.668;23.364;2023-08-07T06:55:38;94650.16;;;21.71;84.11
28626;BME280;18905;42.668;23.364;2023-08-07T06:58:03;94723.38;;;22.91;83.07
28626;BME280;18905;42.668;23.364;2023-08-07T07:00:29;94693.72;;;23.13;83.65
28626;BME280;18905;42.668;23.364;2023-08-07T07:02:55;94721.94;;;24.08;75.79
28626;BME280;18905;42.668;23.364;2023-08-07T07:05:20;94668.56;;;22.60;78.63
28626;BME280;18905;42.668;23.364;2023-08-07T07:07:46;94728.84;;;23.90;78.04
28626;BME280;18905;42.668;23.364;2023-08-07T07:10:12;94732.56;;;23.73;79.90
28626;BME280;18905;42.668;23.364;2023-08-07T07:12:37;94644.97;;;21.87;80.72
28626;BME280;18905;42.668;23.364;2023-08-07T07:15:03;94629.16;;;22.73;78.94
28626;BME280;18905;42.668;23.364;2023-08-07T07:17:28;94643.84;;;23.04;71.31
28626;BME280;18905;42.668;23.364;2023-08-07T07:19:53;94650.22;;;23.38;69.38
28626;BME280;18905;42.668;23.364;2023-08-07T07:22:19;94630.09;;;22.49;76.96
28626;BME280;18905;42.668;23.364;2023-08-07T07:24:44;94639.00;;;23.55;72.41
28626;BME280;18905;42.668;23.364;2023-08-07T07:27:10;94703.47;;;24.05;71.16
28626;BME280;18905;42.668;23.364;2023-08-07T07:29:35;94714.09;;;24.07;69.80
28626;BME280;18905;42.668;23.364;2023-08-07T07:32:01;94631.09;;;23.61;73.99
28626;BME280;18905;42.668;23.364;2023-08-07T07:34:26;94709.19;;;23.44;75.95
28626;BME280;18905;42.668;23.364;2023-08-07T07:36:52;94638.25;;;23.55;77.17
28626;BME280;18905;42.668;23.364;2023-08-07T07:39:18;94712.22;;;24.64;69.42
28626;BME280;18905;42.668;23.364;2023-08-07T07:41:44;94685.53;;;23.50;77.13
28626;BME280;18905;42.668;23.364;2023-08-07T07:44:09;94637.59;;;23.00;79.49
28626;BME280;18905;42.668;23.364;2023-08-07T07:46:35;94724.00;;;24.01;75.31
28626;BME280;18905;42.668;23.364;2023-08-07T07:49:00;94650.75;;;22.75;75.91
28626;BME280;18905;42.668;23.364;2023-08-07T07:51:28;94644.00;;;23.30;74.30
28626;BME280;18905;42.668;23.364;2023-08-07T07:53:54;94626.38;;;23.61;75.35
28626;BME280;18905;42.668;23.364;2023-08-07T07:56:19;94655.97;;;23.54;73.92
28626;BME280;18905;42.668;23.364;2023-08-07T07:58:45;94644.13;;;24.24;71.78
28626;BME280;18905;42.668;23.364;2023-08-07T08:01:10;94637.34;;;24.28;68.46
28626;BME280;18905;42.668;23.364;2023-08-07T08:03:36;94708.31;;;24.88;67.56
28626;BME280;18905;42.668;23.364;2023-08-07T08:06:01;94635.31;;;24.06;63.62
28626;BME280;18905;42.668;23.364;2023-08-07T08:08:27;94704.41;;;24.85;64.69
28626;BME280;18905;42.668;23.364;2023-08-07T08:10:52;94631.88;;;23.61;64.66
28626;BME280;18905;42.668;23.364;2023-08-07T08:13:18;94665.72;;;23.62;71.52
28626;BME280;18905;42.668;23.364;2023-08-07T08:15:44;94708.81;;;24.49;69.00
28626;BME280;18905;42.668;23.364;2023-08-07T08:18:10;94640.22;;;24.48;64.39
28626;BME280;18905;42.668;23.364;2023-08-07T08:20:36;94654.47;;;24.99;64.54
28626;BME280;18905;42.668;23.364;2023-08-07T08:23:01;94644.56;;;25.25;63.47
28626;BME280;18905;42.668;23.364;2023-08-07T08:25:27;94681.88;;;25.36;64.24
28626;BME280;18905;42.668;23.364;2023-08-07T08:27:52;94691.94;;;24.74;62.36
28626;BME280;18905;42.668;23.364;2023-08-07T08:30:18;94640.25;;;25.24;68.22
28626;BME280;18905;42.668;23.364;2023-08-07T08:32:43;94690.94;;;26.41;59.80
28626;BME280;18905;42.668;23.364;2023-08-07T08:35:09;94657.91;;;25.95;56.03
28626;BME280;18905;42.668;23.364;2023-08-07T08:37:35;94694.66;;;25.50;58.60
28626;BME280;18905;42.668;23.364;2023-08-07T08:40:01;94665.47;;;24.50;60.04
28626;BME280;18905;42.668;23.364;2023-08-07T08:42:31;94600.94;;;24.67;65.38
28626;BME280;18905;42.668;23.364;2023-08-07T08:44:58;94676.66;;;25.65;56.26
28626;BME280;18905;42.668;23.364;2023-08-07T08:47:29;94607.38;;;25.72;51.88
28626;BME280;18905;42.668;23.364;2023-08-07T08:50:02;94662.31;;;25.93;52.75
28626;BME280;18905;42.668;23.364;2023-08-07T08:52:28;94620.00;;;25.73;55.70
28626;BME280;18905;42.668;23.364;2023-08-07T08:54:57;94664.44;;;25.62;53.75
28626;BME280;18905;42.668;23.364;2023-08-07T08:57:24;94659.81;;;24.57;56.68
28626;BME280;18905;42.668;23.364;2023-08-07T08:59:51;94688.22;;;24.57;58.15
28626;BME280;18905;42.668;23.364;2023-08-07T09:02:17;94612.53;;;24.55;59.21
28626;BME280;18905;42.668;23.364;2023-08-07T09:04:44;94662.44;;;25.17;57.29
28626;BME280;18905;42.668;23.364;2023-08-07T09:07:10;94622.94;;;24.97;57.71
28626;BME280;18905;42.668;23.364;2023-08-07T09:09:36;94606.09;;;24.08;59.82
28626;BME280;18905;42.668;23.364;2023-08-07T09:12:02;94610.84;;;24.08;60.99
28626;BME280;18905;42.668;23.364;2023-08-07T09:14:30;94634.06;;;24.93;62.81
28626;BME280;18905;42.668;23.364;2023-08-07T09:16:59;94627.91;;;24.82;60.53
28626;BME280;18905;42.668;23.364;2023-08-07T09:19:26;94664.09;;;25.80;59.54
28626;BME280;18905;42.668;23.364;2023-08-07T09:21:51;94618.41;;;25.33;55.43
28626;BME280;18905;42.668;23.364;2023-08-07T09:24:16;94578.06;;;24.40;57.80
28626;BME280;18905;42.668;23.364;2023-08-07T09:26:43;94665.75;;;24.85;58.33
28626;BME280;18905;42.668;23.364;2023-08-07T09:29:09;94587.72;;;24.55;57.69
28626;BME280;18905;42.668;23.364;2023-08-07T09:31:36;94600.00;;;24.77;58.28
28626;BME280;18905;42.668;23.364;2023-08-07T09:34:03;94583.84;;;24.75;56.50
28626;BME280;18905;42.668;23.364;2023-08-07T09:36:32;94583.31;;;25.07;59.91
28626;BME280;18905;42.668;23.364;2023-08-07T09:39:02;94556.69;;;25.59;55.80
28626;BME280;18905;42.668;23.364;2023-08-07T09:41:29;94562.41;;;25.29;55.44
28626;BME280;18905;42.668;23.364;2023-08-07T09:43:55;94576.91;;;25.75;58.50
28626;BME280;18905;42.668;23.364;2023-08-07T09:46:20;94637.47;;;26.09;54.98
28626;BME280;18905;42.668;23.364;2023-08-07T09:48:47;94575.97;;;25.62;54.36
28626;BME280;18905;42.668;23.364;2023-08-07T09:51:13;94624.16;;;25.42;58.22
28626;BME280;18905;42.668;23.364;2023-08-07T09:53:38;94575.03;;;26.08;57.14
28626;BME280;18905;42.668;23.364;2023-08-07T09:56:04;94634.75;;;27.28;57.02
28626;BME280;18905;42.668;23.364;2023-08-07T09:58:29;94595.50;;;26.65;57.36
28626;BME280;18905;42.668;23.364;2023-08-07T10:00:55;94634.88;;;26.73;52.22
28626;BME280;18905;42.668;23.364;2023-08-07T10:03:25;94569.28;;;26.18;57.23
28626;BME280;18905;42.668;23.364;2023-08-07T10:05:51;94642.34;;;26.76;52.70
28626;BME280;18905;42.668;23.364;2023-08-07T10:08:17;94611.41;;;26.61;54.12
28626;BME280;18905;42.668;23.364;2023-08-07T10:10:43;94566.09;;;26.36;51.19
28626;BME280;18905;42.668;23.364;2023-08-07T10:13:09;94555.84;;;25.81;52.56
28626;BME280;18905;42.668;23.364;2023-08-07T10:15:38;94610.16;;;26.11;52.71
28626;BME280;18905;42.668;23.364;2023-08-07T10:18:05;94625.22;;;26.97;54.19
28626;BME280;18905;42.668;23.364;2023-08-07T10:20:31;94557.00;;;26.71;51.43
28626;BME280;18905;42.668;23.364;2023-08-07T10:23:09;94634.47;;;27.54;52.60
28626;BME280;18905;42.668;23.364;2023-08-07T10:25:40;94588.16;;;26.91;51.81
28626;BME280;18905;42.668;23.364;2023-08-07T10:28:10;94574.38;;;27.35;55.28
28626;BME280;18905;42.668;23.364;2023-08-07T10:30:40;94600.69;;;27.88;52.75
28626;BME280;18905;42.668;23.364;2023-08-07T10:33:07;94645.72;;;28.49;49.08
28626;BME280;18905;42.668;23.364;2023-08-07T10:35:33;94640.81;;;27.23;49.68
28626;BME280;18905;42.668;23.364;2023-08-07T10:38:06;94591.28;;;26.61;53.39
28626;BME280;18905;42.668;23.364;2023-08-07T10:40:33;94559.31;;;27.65;51.94
28626;BME280;18905;42.668;23.364;2023-08-07T10:43:11;94626.41;;;26.96;55.88
28626;BME280;18905;42.668;23.364;2023-08-07T10:45:37;94563.91;;;27.11;51.02
28626;BME280;18905;42.668;23.364;2023-08-07T10:48:13;94619.34;;;27.43;51.94
28626;BME280;18905;42.668;23.364;2023-08-07T10:50:55;94576.13;;;27.58;49.29
28626;BME280;18905;42.668;23.364;2023-08-07T10:53:36;94612.94;;;27.30;53.58
28626;BME280;18905;42.668;23.364;2023-08-07T10:56:08;94562.13;;;27.49;50.75
28626;BME280;18905;42.668;23.364;2023-08-07T10:58:37;94561.00;;;27.46;50.99
28626;BME280;18905;42.668;23.364;2023-08-07T11:04:02;94544.84;;;26.49;52.31
28626;BME280;18905;42.668;23.364;2023-08-07T11:06:32;94557.34;;;26.73;55.14
28626;BME280;18905;42.668;23.364;2023-08-07T11:09:02;94569.00;;;27.28;51.96
28626;BME280;18905;42.668;23.364;2023-08-07T11:11:43;94554.34;;;26.32;51.92
28626;BME280;18905;42.668;23.364;2023-08-07T11:14:14;94600.88;;;26.88;52.84
28626;BME280;18905;42.668;23.364;2023-08-07T11:16:40;94560.31;;;26.66;50.85
28626;BME280;18905;42.668;23.364;2023-08-07T11:19:06;94505.03;;;26.27;50.56
28626;BME280;18905;42.668;23.364;2023-08-07T11:21:32;94565.72;;;27.01;49.37
28626;BME280;18905;42.668;23.364;2023-08-07T11:23:57;94572.56;;;27.13;49.28
28626;BME280;18905;42.668;23.364;2023-08-07T11:26:23;94515.78;;;26.41;50.34
28626;BME280;18905;42.668;23.364;2023-08-07T11:28:51;94531.94;;;26.26;51.20
28626;BME280;18905;42.668;23.364;2023-08-07T11:31:18;94512.31;;;26.21;51.55
28626;BME280;18905;42.668;23.364;2023-08-07T11:33:44;94515.69;;;26.28;50.52
28626;BME280;18905;42.668;23.364;2023-08-07T11:36:11;94511.88;;;26.38;51.36
28626;BME280;18905;42.668;23.364;2023-08-07T11:38:39;94502.44;;;27.00;50.38
28626;BME280;18905;42.668;23.364;2023-08-07T11:41:06;94506.66;;;26.60;50.66
28626;BME280;18905;42.668;23.364;2023-08-07T11:43:34;94479.09;;;26.05;52.29
28626;BME280;18905;42.668;23.364;2023-08-07T11:46:02;94566.53;;;26.70;51.63
28626;BME280;18905;42.668;23.364;2023-08-07T11:48:30;94515.94;;;26.34;52.42
28626;BME280;18905;42.668;23.364;2023-08-07T11:50:57;94512.84;;;25.96;55.65
28626;BME280;18905;42.668;23.364;2023-08-07T11:53:25;94584.84;;;26.96;55.03
28626;BME280;18905;42.668;23.364;2023-08-07T11:56:02;94532.84;;;27.48;52.91
28626;BME280;18905;42.668;23.364;2023-08-07T11:58:34;94520.00;;;27.54;49.91
28626;BME280;18905;42.668;23.364;2023-08-07T12:01:17;94510.56;;;27.23;48.79
28626;BME280;18905;42.668;23.364;2023-08-07T12:03:52;94561.72;;;27.34;48.59
28626;BME280;18905;42.668;23.364;2023-08-07T12:06:18;94479.13;;;27.13;48.29
28626;BME280;18905;42.668;23.364;2023-08-07T12:08:44;94489.69;;;27.02;48.67
28626;BME280;18905;42.668;23.364;2023-08-07T12:11:10;94477.28;;;26.94;49.49
28626;BME280;18905;42.668;23.364;2023-08-07T12:13:41;94563.31;;;27.19;49.97
28626;BME280;18905;42.668;23.364;2023-08-07T12:16:07;94551.97;;;26.98;51.19
28626;BME280;18905;42.668;23.364;2023-08-07T12:18:34;94455.75;;;26.38;50.40
28626;BME280;18905;42.668;23.364;2023-08-07T12:21:02;94445.47;;;26.22;51.62
28626;BME280;18905;42.668;23.364;2023-08-07T12:23:29;94394.06;;;26.37;50.36
28626;BME280;18905;42.668;23.364;2023-08-07T12:25:58;94419.06;;;26.50;49.95
28626;BME280;18905;42.668;23.364;2023-08-07T12:28:23;94411.03;;;26.39;50.37
28626;BME280;18905;42.668;23.364;2023-08-07T12:30:50;94542.63;;;27.24;51.35
28626;BME280;18905;42.668;23.364;2023-08-07T12:33:18;94500.78;;;27.02;53.65
28626;BME280;18905;42.668;23.364;2023-08-07T12:35:45;94398.25;;;26.13;54.07
28626;BME280;18905;42.668;23.364;2023-08-07T12:38:11;94486.72;;;26.97;52.10
28626;BME280;18905;42.668;23.364;2023-08-07T12:40:41;94492.72;;;27.08;55.45
28626;BME280;18905;42.668;23.364;2023-08-07T12:43:08;94476.75;;;26.99;52.95
28626;BME280;18905;42.668;23.364;2023-08-07T12:45:35;94491.56;;;26.93;55.81
28626;BME280;18905;42.668;23.364;2023-08-07T12:48:02;94530.09;;;27.32;53.11
28626;BME280;18905;42.668;23.364;2023-08-07T12:50:28;94521.31;;;27.05;56.77